sensor_id;sensor_type;location;lat;lon;timestamp;P1;durP1;ratioP1;P2;durP2;ratioP2
71125;SDS011;58785;55.566;38.058;2023-12-28T00:00:29;6.73;;;1.77;;
71125;SDS011;58785;55.566;38.058;2023-12-28T00:02:56;5.97;;;1.88;;
71125;SDS011;58785;55.566;38.058;2023-12-28T00:05:21;10.02;;;2.40;;
71125;SDS011;58785;55.566;38.058;2023-12-28T00:07:47;6.97;;;1.70;;
71125;SDS011;58785;55.566;38.058;2023-12-28T00:10:12;8.03;;;2.20;;
71125;SDS011;58785;55.566;38.058;2023-12-28T00:12:38;10.00;;;2.07;;
71125;SDS011;58785;55.566;38.058;2023-12-28T00:15:04;7.73;;;2.20;;
71125;SDS011;58785;55.566;38.058;2023-12-28T00:17:31;6.47;;;1.93;;
71125;SDS011;58785;55.566;38.058;2023-12-28T00:19:56;8.15;;;1.85;;
71125;SDS011;58785;55.566;38.058;2023-12-28T00:22:22;6.43;;;1.80;;
71125;SDS011;58785;55.566;38.058;2023-12-28T00:24:47;6.57;;;1.80;;
71125;SDS011;58785;55.566;38.058;2023-12-28T00:27:13;6.78;;;1.60;;
71125;SDS011;58785;55.566;38.058;2023-12-28T00:29:39;7.13;;;1.50;;
71125;SDS011;58785;55.566;38.058;2023-12-28T00:32:06;7.10;;;1.98;;
71125;SDS011;58785;55.566;38.058;2023-12-28T00:34:32;8.63;;;1.95;;
71125;SDS011;58785;55.566;38.058;2023-12-28T00:36:57;7.47;;;2.27;;
71125;SDS011;58785;55.566;38.058;2023-12-28T00:39:23;6.50;;;1.80;;
71125;SDS011;58785;55.566;38.058;2023-12-28T00:41:49;8.68;;;2.03;;
71125;SDS011;58785;55.566;38.058;2023-12-28T00:44:14;7.20;;;2.33;;
71125;SDS011;58785;55.566;38.058;2023-12-28T00:46:40;6.57;;;2.05;;
71125;SDS011;58785;55.566;38.058;2023-12-28T00:49:05;8.10;;;2.70;;
71125;SDS011;58785;55.566;38.058;2023-12-28T00:51:31;7.10;;;1.77;;
71125;SDS011;58785;55.566;38.058;2023-12-28T00:53:57;6.97;;;1.80;;
71125;SDS011;58785;55.566;38.058;2023-12-28T00:56:22;5.97;;;1.80;;
71125;SDS011;58785;55.566;38.058;2023-12-28T00:58:48;8.57;;;1.95;;
71125;SDS011;58785;55.566;38.058;2023-12-28T01:01:13;7.07;;;1.57;;
71125;SDS011;58785;55.566;38.058;2023-12-28T01:03:39;9.03;;;1.47;;
71125;SDS011;58785;55.566;38.058;2023-12-28T01:06:06;7.18;;;1.95;;
71125;SDS011;58785;55.566;38.058;2023-12-28T01:08:32;8.70;;;2.10;;
71125;SDS011;58785;55.566;38.058;2023-12-28T01:10:59;7.35;;;1.63;;
71125;SDS011;58785;55.566;38.058;2023-12-28T01:13:25;5.93;;;2.10;;
71125;SDS011;58785;55.566;38.058;2023-12-28T01:15:52;7.17;;;1.63;;
71125;SDS011;58785;55.566;38.058;2023-12-28T01:18:18;7.25;;;1.83;;
71125;SDS011;58785;55.566;38.058;2023-12-28T01:20:44;7.72;;;1.90;;
71125;SDS011;58785;55.566;38.058;2023-12-28T01:23:09;7.43;;;2.10;;
71125;SDS011;58785;55.566;38.058;2023-12-28T01:25:35;4.88;;;1.33;;
71125;SDS011;58785;55.566;38.058;2023-12-28T01:28:01;7.43;;;2.03;;
71125;SDS011;58785;55.566;38.058;2023-12-28T01:30:26;5.97;;;1.40;;
71125;SDS011;58785;55.566;38.058;2023-12-28T01:32:52;7.07;;;1.87;;
71125;SDS011;58785;55.566;38.058;2023-12-28T01:35:17;7.03;;;1.73;;
71125;SDS011;58785;55.566;38.058;2023-12-28T01:37:43;5.32;;;1.42;;
71125;SDS011;58785;55.566;38.058;2023-12-28T01:40:09;8.60;;;1.93;;
71125;SDS011;58785;55.566;38.058;2023-12-28T01:42:35;6.30;;;1.70;;
71125;SDS011;58785;55.566;38.058;2023-12-28T01:45:00;6.13;;;1.42;;
71125;SDS011;58785;55.566;38.058;2023-12-28T01:47:27;6.37;;;1.53;;
71125;SDS011;58785;55.566;38.058;2023-12-28T01:49:54;5.32;;;1.15;;
71125;SDS011;58785;55.566;38.058;2023-12-28T01:52:20;5.70;;;1.73;;
71125;SDS011;58785;55.566;38.058;2023-12-28T01:54:45;5.35;;;1.70;;
71125;SDS011;58785;55.566;38.058;2023-12-28T01:57:11;7.60;;;1.80;;
71125;SDS011;58785;55.566;38.058;2023-12-28T01:59:39;5.15;;;1.35;;
71125;SDS011;58785;55.566;38.058;2023-12-28T02:02:06;8.73;;;1.90;;
71125;SDS011;58785;55.566;38.058;2023-12-28T02:04:32;6.68;;;1.45;;
71125;SDS011;58785;55.566;38.058;2023-12-28T02:06:59;6.30;;;1.95;;
71125;SDS011;58785;55.566;38.058;2023-12-28T02:09:25;4.87;;;1.07;;
71125;SDS011;58785;55.566;38.058;2023-12-28T02:11:51;6.28;;;1.60;;
71125;SDS011;58785;55.566;38.058;2023-12-28T02:14:21;5.90;;;1.35;;
71125;SDS011;58785;55.566;38.058;2023-12-28T02:17:03;7.38;;;1.67;;
71125;SDS011;58785;55.566;38.058;2023-12-28T02:19:46;5.00;;;1.43;;
71125;SDS011;58785;55.566;38.058;2023-12-28T02:22:15;5.88;;;1.60;;
71125;SDS011;58785;55.566;38.058;2023-12-28T02:24:56;5.40;;;1.65;;
71125;SDS011;58785;55.566;38.058;2023-12-28T02:27:38;5.85;;;1.50;;
71125;SDS011;58785;55.566;38.058;2023-12-28T02:30:05;5.47;;;1.23;;
71125;SDS011;58785;55.566;38.058;2023-12-28T02:32:54;4.73;;;1.37;;
71125;SDS011;58785;55.566;38.058;2023-12-28T02:35:51;5.68;;;1.50;;
71125;SDS011;58785;55.566;38.058;2023-12-28T02:38:20;8.88;;;1.30;;
71125;SDS011;58785;55.566;38.058;2023-12-28T02:40:49;6.40;;;1.50;;
71125;SDS011;58785;55.566;38.058;2023-12-28T02:43:15;5.63;;;1.30;;
71125;SDS011;58785;55.566;38.058;2023-12-28T02:45:42;7.03;;;1.50;;
71125;SDS011;58785;55.566;38.058;2023-12-28T02:48:07;5.65;;;1.55;;
71125;SDS011;58785;55.566;38.058;2023-12-28T02:50:33;6.70;;;1.97;;
71125;SDS011;58785;55.566;38.058;2023-12-28T02:53:00;7.47;;;1.67;;
71125;SDS011;58785;55.566;38.058;2023-12-28T02:55:27;6.07;;;1.60;;
71125;SDS011;58785;55.566;38.058;2023-12-28T02:57:53;6.22;;;1.77;;
71125;SDS011;58785;55.566;38.058;2023-12-28T03:00:21;5.20;;;1.30;;
71125;SDS011;58785;55.566;38.058;2023-12-28T03:02:48;5.85;;;1.27;;
71125;SDS011;58785;55.566;38.058;2023-12-28T03:05:14;4.95;;;1.35;;
71125;SDS011;58785;55.566;38.058;2023-12-28T03:07:40;6.95;;;1.08;;
71125;SDS011;58785;55.566;38.058;2023-12-28T03:10:06;7.23;;;1.70;;
71125;SDS011;58785;55.566;38.058;2023-12-28T03:12:32;6.20;;;1.65;;
71125;SDS011;58785;55.566;38.058;2023-12-28T03:14:58;8.05;;;1.45;;
71125;SDS011;58785;55.566;38.058;2023-12-28T03:17:24;7.20;;;1.87;;
71125;SDS011;58785;55.566;38.058;2023-12-28T03:19:49;8.90;;;1.83;;
71125;SDS011;58785;55.566;38.058;2023-12-28T03:22:15;5.90;;;1.60;;
71125;SDS011;58785;55.566;38.058;2023-12-28T03:24:42;5.47;;;1.10;;
71125;SDS011;58785;55.566;38.058;2023-12-28T03:27:08;5.88;;;1.52;;
71125;SDS011;58785;55.566;38.058;2023-12-28T03:29:34;4.43;;;0.97;;
71125;SDS011;58785;55.566;38.058;2023-12-28T03:31:59;7.07;;;1.58;;
71125;SDS011;58785;55.566;38.058;2023-12-28T03:34:26;5.47;;;1.23;;
71125;SDS011;58785;55.566;38.058;2023-12-28T03:36:54;5.80;;;1.48;;
71125;SDS011;58785;55.566;38.058;2023-12-28T03:39:20;6.07;;;1.13;;
71125;SDS011;58785;55.566;38.058;2023-12-28T03:41:47;7.63;;;1.88;;
71125;SDS011;58785;55.566;38.058;2023-12-28T03:44:13;6.32;;;1.75;;
71125;SDS011;58785;55.566;38.058;2023-12-28T03:46:38;5.20;;;1.40;;
71125;SDS011;58785;55.566;38.058;2023-12-28T03:49:04;5.55;;;1.30;;
71125;SDS011;58785;55.566;38.058;2023-12-28T03:51:30;5.73;;;1.53;;
71125;SDS011;58785;55.566;38.058;2023-12-28T03:53:56;7.10;;;1.95;;
71125;SDS011;58785;55.566;38.058;2023-12-28T03:56:25;7.57;;;1.43;;
71125;SDS011;58785;55.566;38.058;2023-12-28T03:58:51;7.07;;;1.50;;
71125;SDS011;58785;55.566;38.058;2023-12-28T04:01:18;7.50;;;1.80;;
71125;SDS011;58785;55.566;38.058;2023-12-28T04:03:45;5.60;;;1.20;;
71125;SDS011;58785;55.566;38.058;2023-12-28T04:06:12;6.57;;;1.60;;
71125;SDS011;58785;55.566;38.058;2023-12-28T04:08:38;6.78;;;2.13;;
71125;SDS011;58785;55.566;38.058;2023-12-28T04:11:04;7.03;;;1.90;;
71125;SDS011;58785;55.566;38.058;2023-12-28T04:13:30;6.30;;;1.63;;
71125;SDS011;58785;55.566;38.058;2023-12-28T04:15:56;5.60;;;1.43;;
71125;SDS011;58785;55.566;38.058;2023-12-28T04:18:21;6.18;;;1.80;;
71125;SDS011;58785;55.566;38.058;2023-12-28T04:20:47;6.23;;;1.40;;
71125;SDS011;58785;55.566;38.058;2023-12-28T04:23:13;5.13;;;1.30;;
71125;SDS011;58785;55.566;38.058;2023-12-28T04:25:39;5.82;;;1.35;;
71125;SDS011;58785;55.566;38.058;2023-12-28T04:28:05;5.45;;;1.63;;
71125;SDS011;58785;55.566;38.058;2023-12-28T04:30:31;4.63;;;1.13;;
71125;SDS011;58785;55.566;38.058;2023-12-28T04:32:57;6.32;;;1.35;;
71125;SDS011;58785;55.566;38.058;2023-12-28T04:35:22;5.87;;;1.47;;
71125;SDS011;58785;55.566;38.058;2023-12-28T04:37:48;4.75;;;1.42;;
71125;SDS011;58785;55.566;38.058;2023-12-28T04:40:13;8.47;;;1.77;;
71125;SDS011;58785;55.566;38.058;2023-12-28T04:42:40;6.03;;;1.85;;
71125;SDS011;58785;55.566;38.058;2023-12-28T04:45:06;7.05;;;1.95;;
71125;SDS011;58785;55.566;38.058;2023-12-28T04:47:32;7.45;;;1.83;;
71125;SDS011;58785;55.566;38.058;2023-12-28T04:49:58;7.43;;;1.73;;
71125;SDS011;58785;55.566;38.058;2023-12-28T04:52:23;7.60;;;2.00;;
71125;SDS011;58785;55.566;38.058;2023-12-28T04:54:49;7.43;;;1.87;;
71125;SDS011;58785;55.566;38.058;2023-12-28T04:57:16;5.85;;;1.55;;
71125;SDS011;58785;55.566;38.058;2023-12-28T04:59:41;5.53;;;1.37;;
71125;SDS011;58785;55.566;38.058;2023-12-28T05:02:07;7.80;;;2.00;;
71125;SDS011;58785;55.566;38.058;2023-12-28T05:04:36;6.27;;;1.93;;
71125;SDS011;58785;55.566;38.058;2023-12-28T05:07:04;6.18;;;1.88;;
71125;SDS011;58785;55.566;38.058;2023-12-28T05:09:29;6.75;;;1.65;;
71125;SDS011;58785;55.566;38.058;2023-12-28T05:11:55;9.03;;;1.60;;
71125;SDS011;58785;55.566;38.058;2023-12-28T05:14:20;6.53;;;2.00;;
71125;SDS011;58785;55.566;38.058;2023-12-28T05:16:46;6.03;;;1.80;;
71125;SDS011;58785;55.566;38.058;2023-12-28T05:19:12;6.00;;;1.90;;
71125;SDS011;58785;55.566;38.058;2023-12-28T05:21:37;6.78;;;2.08;;
71125;SDS011;58785;55.566;38.058;2023-12-28T05:24:03;6.50;;;1.80;;
71125;SDS011;58785;55.566;38.058;2023-12-28T05:26:29;5.35;;;1.67;;
71125;SDS011;58785;55.566;38.058;2023-12-28T05:28:55;9.80;;;1.98;;
71125;SDS011;58785;55.566;38.058;2023-12-28T05:31:21;7.07;;;2.00;;
71125;SDS011;58785;55.566;38.058;2023-12-28T05:33:46;8.30;;;2.33;;
71125;SDS011;58785;55.566;38.058;2023-12-28T05:36:12;6.63;;;2.00;;
71125;SDS011;58785;55.566;38.058;2023-12-28T05:38:38;6.80;;;1.80;;
71125;SDS011;58785;55.566;38.058;2023-12-28T05:41:04;8.90;;;2.10;;
71125;SDS011;58785;55.566;38.058;2023-12-28T05:43:29;7.15;;;2.20;;
71125;SDS011;58785;55.566;38.058;2023-12-28T05:45:55;5.47;;;1.93;;
71125;SDS011;58785;55.566;38.058;2023-12-28T05:48:21;7.15;;;1.90;;
71125;SDS011;58785;55.566;38.058;2023-12-28T05:50:46;8.23;;;2.43;;
71125;SDS011;58785;55.566;38.058;2023-12-28T05:53:12;7.23;;;2.13;;
71125;SDS011;58785;55.566;38.058;2023-12-28T05:55:43;6.95;;;1.92;;
71125;SDS011;58785;55.566;38.058;2023-12-28T05:58:11;8.18;;;1.90;;
71125;SDS011;58785;55.566;38.058;2023-12-28T06:00:37;6.70;;;2.25;;
71125;SDS011;58785;55.566;38.058;2023-12-28T06:03:05;7.38;;;2.63;;
71125;SDS011;58785;55.566;38.058;2023-12-28T06:05:31;5.20;;;1.60;;
71125;SDS011;58785;55.566;38.058;2023-12-28T06:07:57;6.75;;;1.98;;
71125;SDS011;58785;55.566;38.058;2023-12-28T06:10:23;7.78;;;1.70;;
71125;SDS011;58785;55.566;38.058;2023-12-28T06:12:49;7.60;;;2.47;;
71125;SDS011;58785;55.566;38.058;2023-12-28T06:15:15;7.63;;;1.73;;
71125;SDS011;58785;55.566;38.058;2023-12-28T06:17:40;4.73;;;1.53;;
71125;SDS011;58785;55.566;38.058;2023-12-28T06:20:06;7.07;;;1.73;;
71125;SDS011;58785;55.566;38.058;2023-12-28T06:22:33;7.05;;;1.65;;
71125;SDS011;58785;55.566;38.058;2023-12-28T06:25:02;7.77;;;2.10;;
71125;SDS011;58785;55.566;38.058;2023-12-28T06:27:30;7.15;;;1.70;;
71125;SDS011;58785;55.566;38.058;2023-12-28T06:29:56;5.03;;;1.45;;
71125;SDS011;58785;55.566;38.058;2023-12-28T06:32:21;7.77;;;1.53;;
71125;SDS011;58785;55.566;38.058;2023-12-28T06:34:47;5.95;;;1.67;;
71125;SDS011;58785;55.566;38.058;2023-12-28T06:37:13;4.22;;;1.15;;
71125;SDS011;58785;55.566;38.058;2023-12-28T06:39:39;6.73;;;1.50;;
71125;SDS011;58785;55.566;38.058;2023-12-28T06:42:05;4.55;;;1.15;;
71125;SDS011;58785;55.566;38.058;2023-12-28T06:44:31;6.40;;;1.48;;
71125;SDS011;58785;55.566;38.058;2023-12-28T06:46:56;5.83;;;1.40;;
71125;SDS011;58785;55.566;38.058;2023-12-28T06:49:23;10.82;;;1.50;;
71125;SDS011;58785;55.566;38.058;2023-12-28T06:51:49;7.55;;;1.65;;
71125;SDS011;58785;55.566;38.058;2023-12-28T06:54:14;16.47;;;2.20;;
71125;SDS011;58785;55.566;38.058;2023-12-28T06:56:40;11.95;;;2.60;;
71125;SDS011;58785;55.566;38.058;2023-12-28T06:59:06;5.83;;;1.53;;
71125;SDS011;58785;55.566;38.058;2023-12-28T07:01:31;6.63;;;1.45;;
71125;SDS011;58785;55.566;38.058;2023-12-28T07:03:58;8.23;;;1.67;;
71125;SDS011;58785;55.566;38.058;2023-12-28T07:06:24;9.48;;;2.30;;
71125;SDS011;58785;55.566;38.058;2023-12-28T07:08:50;7.63;;;1.60;;
71125;SDS011;58785;55.566;38.058;2023-12-28T07:11:16;5.20;;;1.73;;
71125;SDS011;58785;55.566;38.058;2023-12-28T07:13:42;10.05;;;1.77;;
71125;SDS011;58785;55.566;38.058;2023-12-28T07:16:07;10.33;;;2.17;;
71125;SDS011;58785;55.566;38.058;2023-12-28T07:18:33;8.18;;;1.77;;
71125;SDS011;58785;55.566;38.058;2023-12-28T07:20:59;7.03;;;1.70;;
71125;SDS011;58785;55.566;38.058;2023-12-28T07:23:26;9.85;;;2.13;;
71125;SDS011;58785;55.566;38.058;2023-12-28T07:25:53;9.73;;;2.10;;
71125;SDS011;58785;55.566;38.058;2023-12-28T07:28:18;8.00;;;1.45;;
71125;SDS011;58785;55.566;38.058;2023-12-28T07:30:44;10.90;;;2.73;;
71125;SDS011;58785;55.566;38.058;2023-12-28T07:33:10;6.85;;;1.88;;
71125;SDS011;58785;55.566;38.058;2023-12-28T07:35:36;6.93;;;1.43;;
71125;SDS011;58785;55.566;38.058;2023-12-28T07:38:01;9.77;;;1.80;;
71125;SDS011;58785;55.566;38.058;2023-12-28T07:40:27;7.83;;;1.60;;
71125;SDS011;58785;55.566;38.058;2023-12-28T07:42:53;6.00;;;2.13;;
71125;SDS011;58785;55.566;38.058;2023-12-28T07:45:18;7.13;;;1.80;;
71125;SDS011;58785;55.566;38.058;2023-12-28T07:47:49;9.80;;;1.98;;
71125;SDS011;58785;55.566;38.058;2023-12-28T07:50:16;7.00;;;1.88;;
71125;SDS011;58785;55.566;38.058;2023-12-28T07:52:42;7.85;;;1.65;;
71125;SDS011;58785;55.566;38.058;2023-12-28T07:55:08;6.07;;;1.70;;
71125;SDS011;58785;55.566;38.058;2023-12-28T07:57:34;7.93;;;1.90;;
71125;SDS011;58785;55.566;38.058;2023-12-28T08:00:00;7.30;;;1.70;;
71125;SDS011;58785;55.566;38.058;2023-12-28T08:02:28;4.15;;;1.27;;
71125;SDS011;58785;55.566;38.058;2023-12-28T08:04:55;5.67;;;1.33;;
71125;SDS011;58785;55.566;38.058;2023-12-28T08:07:21;4.43;;;1.30;;
71125;SDS011;58785;55.566;38.058;2023-12-28T08:09:46;3.72;;;0.65;;
71125;SDS011;58785;55.566;38.058;2023-12-28T08:12:12;3.77;;;0.97;;
71125;SDS011;58785;55.566;38.058;2023-12-28T08:14:38;5.05;;;1.30;;
71125;SDS011;58785;55.566;38.058;2023-12-28T08:17:03;5.70;;;1.40;;
71125;SDS011;58785;55.566;38.058;2023-12-28T08:19:29;5.45;;;1.30;;
71125;SDS011;58785;55.566;38.058;2023-12-28T08:21:54;5.77;;;1.17;;
71125;SDS011;58785;55.566;38.058;2023-12-28T08:24:20;4.20;;;1.00;;
71125;SDS011;58785;55.566;38.058;2023-12-28T08:26:46;4.83;;;1.30;;
71125;SDS011;58785;55.566;38.058;2023-12-28T08:29:12;7.30;;;1.38;;
71125;SDS011;58785;55.566;38.058;2023-12-28T08:31:38;5.20;;;1.60;;
71125;SDS011;58785;55.566;38.058;2023-12-28T08:34:04;5.27;;;1.27;;
71125;SDS011;58785;55.566;38.058;2023-12-28T08:36:30;5.65;;;1.23;;
71125;SDS011;58785;55.566;38.058;2023-12-28T08:38:55;5.77;;;1.20;;
71125;SDS011;58785;55.566;38.058;2023-12-28T08:41:21;5.87;;;1.53;;
71125;SDS011;58785;55.566;38.058;2023-12-28T08:43:52;5.47;;;1.50;;
71125;SDS011;58785;55.566;38.058;2023-12-28T08:49:46;4.77;;;1.13;;
71125;SDS011;58785;55.566;38.058;2023-12-28T08:52:11;8.38;;;1.95;;
71125;SDS011;58785;55.566;38.058;2023-12-28T08:54:37;12.93;;;2.53;;
71125;SDS011;58785;55.566;38.058;2023-12-28T08:57:02;6.82;;;1.95;;
71125;SDS011;58785;55.566;38.058;2023-12-28T08:59:28;8.20;;;2.00;;
71125;SDS011;58785;55.566;38.058;2023-12-28T09:01:54;7.32;;;2.25;;
71125;SDS011;58785;55.566;38.058;2023-12-28T09:04:20;6.97;;;1.43;;
71125;SDS011;58785;55.566;38.058;2023-12-28T09:06:46;4.65;;;1.20;;
71125;SDS011;58785;55.566;38.058;2023-12-28T09:09:11;8.10;;;2.20;;
71125;SDS011;58785;55.566;38.058;2023-12-28T09:11:37;8.95;;;1.98;;
71125;SDS011;58785;55.566;38.058;2023-12-28T09:14:03;6.05;;;1.90;;
71125;SDS011;58785;55.566;38.058;2023-12-28T09:16:28;5.93;;;1.33;;
71125;SDS011;58785;55.566;38.058;2023-12-28T09:18:54;4.90;;;1.15;;
71125;SDS011;58785;55.566;38.058;2023-12-28T09:21:20;7.10;;;1.77;;
71125;SDS011;58785;55.566;38.058;2023-12-28T09:23:46;9.20;;;2.08;;
71125;SDS011;58785;55.566;38.058;2023-12-28T09:26:11;7.93;;;1.30;;
71125;SDS011;58785;55.566;38.058;2023-12-28T09:28:37;5.72;;;1.45;;
71125;SDS011;58785;55.566;38.058;2023-12-28T09:31:03;11.10;;;1.87;;
71125;SDS011;58785;55.566;38.058;2023-12-28T09:33:29;5.97;;;1.10;;
71125;SDS011;58785;55.566;38.058;2023-12-28T09:35:55;4.90;;;0.75;;
71125;SDS011;58785;55.566;38.058;2023-12-28T09:38:20;5.00;;;1.23;;
71125;SDS011;58785;55.566;38.058;2023-12-28T09:40:47;5.00;;;1.17;;
71125;SDS011;58785;55.566;38.058;2023-12-28T09:43:24;5.20;;;1.00;;
71125;SDS011;58785;55.566;38.058;2023-12-28T09:45:51;4.10;;;1.00;;
71125;SDS011;58785;55.566;38.058;2023-12-28T09:48:18;7.93;;;1.30;;
71125;SDS011;58785;55.566;38.058;2023-12-28T09:50:50;8.05;;;1.50;;
71125;SDS011;58785;55.566;38.058;2023-12-28T09:53:16;4.88;;;0.90;;
71125;SDS011;58785;55.566;38.058;2023-12-28T09:55:42;6.00;;;1.38;;
71125;SDS011;58785;55.566;38.058;2023-12-28T09:58:09;7.63;;;2.00;;
71125;SDS011;58785;55.566;38.058;2023-12-28T10:00:37;6.28;;;1.67;;
71125;SDS011;58785;55.566;38.058;2023-12-28T10:03:03;6.25;;;1.00;;
71125;SDS011;58785;55.566;38.058;2023-12-28T10:05:30;11.85;;;2.22;;
71125;SDS011;58785;55.566;38.058;2023-12-28T10:07:55;13.30;;;2.10;;
71125;SDS011;58785;55.566;38.058;2023-12-28T10:10:22;11.43;;;1.60;;
71125;SDS011;58785;55.566;38.058;2023-12-28T10:12:48;6.13;;;1.33;;
71125;SDS011;58785;55.566;38.058;2023-12-28T10:15:13;8.48;;;1.48;;
71125;SDS011;58785;55.566;38.058;2023-12-28T10:17:39;6.37;;;1.27;;
71125;SDS011;58785;55.566;38.058;2023-12-28T10:20:06;11.23;;;1.75;;
71125;SDS011;58785;55.566;38.058;2023-12-28T10:22:36;12.85;;;1.77;;
71125;SDS011;58785;55.566;38.058;2023-12-28T10:25:03;15.13;;;2.33;;
71125;SDS011;58785;55.566;38.058;2023-12-28T10:27:29;12.43;;;2.43;;
71125;SDS011;58785;55.566;38.058;2023-12-28T10:29:55;8.68;;;2.35;;
71125;SDS011;58785;55.566;38.058;2023-12-28T10:32:24;22.27;;;3.97;;
71125;SDS011;58785;55.566;38.058;2023-12-28T10:34:53;25.60;;;6.00;;
71125;SDS011;58785;55.566;38.058;2023-12-28T10:37:19;19.55;;;3.90;;
71125;SDS011;58785;55.566;38.058;2023-12-28T10:39:46;16.15;;;3.33;;
71125;SDS011;58785;55.566;38.058;2023-12-28T10:42:16;13.45;;;3.85;;
71125;SDS011;58785;55.566;38.058;2023-12-28T10:45:02;21.73;;;5.03;;
71125;SDS011;58785;55.566;38.058;2023-12-28T10:47:35;17.23;;;3.60;;
71125;SDS011;58785;55.566;38.058;2023-12-28T10:50:04;12.70;;;3.35;;
71125;SDS011;58785;55.566;38.058;2023-12-28T10:52:32;10.18;;;1.83;;
71125;SDS011;58785;55.566;38.058;2023-12-28T10:57:39;5.63;;;1.60;;
71125;SDS011;58785;55.566;38.058;2023-12-28T11:00:14;7.83;;;1.80;;
71125;SDS011;58785;55.566;38.058;2023-12-28T11:02:45;5.43;;;1.83;;
71125;SDS011;58785;55.566;38.058;2023-12-28T11:05:17;5.80;;;1.23;;
71125;SDS011;58785;55.566;38.058;2023-12-28T11:07:45;6.45;;;1.35;;
71125;SDS011;58785;55.566;38.058;2023-12-28T11:10:13;5.95;;;1.63;;
71125;SDS011;58785;55.566;38.058;2023-12-28T11:12:39;6.43;;;1.93;;
71125;SDS011;58785;55.566;38.058;2023-12-28T11:15:06;6.57;;;1.60;;
71125;SDS011;58785;55.566;38.058;2023-12-28T11:17:33;5.47;;;1.17;;
71125;SDS011;58785;55.566;38.058;2023-12-28T11:20:01;6.13;;;1.63;;
71125;SDS011;58785;55.566;38.058;2023-12-28T11:22:30;9.60;;;1.90;;
71125;SDS011;58785;55.566;38.058;2023-12-28T11:24:56;7.30;;;1.67;;
71125;SDS011;58785;55.566;38.058;2023-12-28T11:27:22;13.73;;;2.83;;
71125;SDS011;58785;55.566;38.058;2023-12-28T11:29:48;14.52;;;4.22;;
71125;SDS011;58785;55.566;38.058;2023-12-28T11:32:14;11.47;;;2.30;;
71125;SDS011;58785;55.566;38.058;2023-12-28T11:34:40;6.03;;;1.92;;
71125;SDS011;58785;55.566;38.058;2023-12-28T11:37:07;6.57;;;1.05;;
71125;SDS011;58785;55.566;38.058;2023-12-28T11:39:35;5.60;;;1.70;;
71125;SDS011;58785;55.566;38.058;2023-12-28T11:42:04;6.03;;;1.30;;
71125;SDS011;58785;55.566;38.058;2023-12-28T11:44:31;5.47;;;1.42;;
71125;SDS011;58785;55.566;38.058;2023-12-28T11:47:13;6.90;;;1.38;;
71125;SDS011;58785;55.566;38.058;2023-12-28T11:49:40;4.10;;;0.88;;
71125;SDS011;58785;55.566;38.058;2023-12-28T11:52:07;10.67;;;1.73;;
71125;SDS011;58785;55.566;38.058;2023-12-28T11:54:34;8.98;;;1.52;;
71125;SDS011;58785;55.566;38.058;2023-12-28T11:57:00;5.07;;;1.38;;
71125;SDS011;58785;55.566;38.058;2023-12-28T11:59:25;5.40;;;1.23;;
71125;SDS011;58785;55.566;38.058;2023-12-28T12:01:52;5.75;;;1.38;;
71125;SDS011;58785;55.566;38.058;2023-12-28T12:04:19;7.70;;;1.70;;
71125;SDS011;58785;55.566;38.058;2023-12-28T12:06:45;8.77;;;1.47;;
71125;SDS011;58785;55.566;38.058;2023-12-28T12:09:12;4.88;;;1.10;;
71125;SDS011;58785;55.566;38.058;2023-12-28T12:11:38;5.25;;;1.13;;
71125;SDS011;58785;55.566;38.058;2023-12-28T12:14:10;6.00;;;1.40;;
71125;SDS011;58785;55.566;38.058;2023-12-28T12:16:37;6.00;;;1.30;;
71125;SDS011;58785;55.566;38.058;2023-12-28T12:19:03;6.82;;;1.98;;
71125;SDS011;58785;55.566;38.058;2023-12-28T12:21:30;9.73;;;2.42;;
71125;SDS011;58785;55.566;38.058;2023-12-28T12:23:56;5.88;;;1.52;;
71125;SDS011;58785;55.566;38.058;2023-12-28T12:26:21;6.00;;;1.60;;
71125;SDS011;58785;55.566;38.058;2023-12-28T12:28:47;6.70;;;1.80;;
71125;SDS011;58785;55.566;38.058;2023-12-28T12:31:13;7.45;;;1.70;;
71125;SDS011;58785;55.566;38.058;2023-12-28T12:33:40;8.77;;;1.67;;
71125;SDS011;58785;55.566;38.058;2023-12-28T12:36:06;6.65;;;1.55;;
71125;SDS011;58785;55.566;38.058;2023-12-28T12:38:33;5.63;;;1.27;;
71125;SDS011;58785;55.566;38.058;2023-12-28T12:40:59;8.43;;;1.40;;
71125;SDS011;58785;55.566;38.058;2023-12-28T12:43:25;5.87;;;1.17;;
71125;SDS011;58785;55.566;38.058;2023-12-28T12:45:52;5.63;;;0.95;;
71125;SDS011;58785;55.566;38.058;2023-12-28T12:48:18;4.15;;;1.13;;
71125;SDS011;58785;55.566;38.058;2023-12-28T12:50:44;5.13;;;0.97;;
71125;SDS011;58785;55.566;38.058;2023-12-28T12:53:10;6.00;;;1.20;;
71125;SDS011;58785;55.566;38.058;2023-12-28T12:55:37;7.50;;;1.15;;
71125;SDS011;58785;55.566;38.058;2023-12-28T12:58:08;2.25;;;0.40;;
71125;SDS011;58785;55.566;38.058;2023-12-28T13:00:35;6.65;;;1.25;;
71125;SDS011;58785;55.566;38.058;2023-12-28T13:03:01;5.43;;;0.93;;
71125;SDS011;58785;55.566;38.058;2023-12-28T13:05:28;5.50;;;0.68;;
71125;SDS011;58785;55.566;38.058;2023-12-28T13:07:54;3.20;;;0.90;;
71125;SDS011;58785;55.566;38.058;2023-12-28T13:10:20;6.53;;;1.00;;
71125;SDS011;58785;55.566;38.058;2023-12-28T13:12:46;6.47;;;1.40;;
71125;SDS011;58785;55.566;38.058;2023-12-28T13:15:11;4.05;;;0.95;;
71125;SDS011;58785;55.566;38.058;2023-12-28T13:17:37;6.00;;;1.17;;
71125;SDS011;58785;55.566;38.058;2023-12-28T13:20:06;3.40;;;0.70;;
71125;SDS011;58785;55.566;38.058;2023-12-28T13:22:32;4.10;;;0.73;;
71125;SDS011;58785;55.566;38.058;2023-12-28T13:24:59;4.22;;;1.00;;
71125;SDS011;58785;55.566;38.058;2023-12-28T13:27:26;6.13;;;1.13;;
71125;SDS011;58785;55.566;38.058;2023-12-28T13:29:54;3.00;;;0.63;;
71125;SDS011;58785;55.566;38.058;2023-12-28T13:32:20;4.70;;;0.90;;
71125;SDS011;58785;55.566;38.058;2023-12-28T13:34:46;4.23;;;1.17;;
71125;SDS011;58785;55.566;38.058;2023-12-28T13:37:12;5.35;;;1.45;;
71125;SDS011;58785;55.566;38.058;2023-12-28T13:39:38;6.50;;;1.40;;
71125;SDS011;58785;55.566;38.058;2023-12-28T13:42:06;4.68;;;1.08;;
71125;SDS011;58785;55.566;38.058;2023-12-28T13:44:35;8.20;;;1.40;;
71125;SDS011;58785;55.566;38.058;2023-12-28T13:47:04;7.35;;;1.25;;
71125;SDS011;58785;55.566;38.058;2023-12-28T13:49:32;5.35;;;1.35;;
71125;SDS011;58785;55.566;38.058;2023-12-28T13:51:58;7.53;;;1.60;;
71125;SDS011;58785;55.566;38.058;2023-12-28T13:54:24;8.00;;;1.10;;
71125;SDS011;58785;55.566;38.058;2023-12-28T13:56:49;8.38;;;1.35;;
71125;SDS011;58785;55.566;38.058;2023-12-28T13:59:15;5.97;;;1.42;;
71125;SDS011;58785;55.566;38.058;2023-12-28T14:01:41;8.30;;;2.03;;
71125;SDS011;58785;55.566;38.058;2023-12-28T14:04:07;9.30;;;2.55;;
71125;SDS011;58785;55.566;38.058;2023-12-28T14:06:33;7.17;;;2.43;;
71125;SDS011;58785;55.566;38.058;2023-12-28T14:08:59;5.80;;;1.40;;
71125;SDS011;58785;55.566;38.058;2023-12-28T14:11:24;8.53;;;2.50;;
71125;SDS011;58785;55.566;38.058;2023-12-28T14:13:50;6.45;;;1.95;;
71125;SDS011;58785;55.566;38.058;2023-12-28T14:16:16;9.07;;;1.27;;
71125;SDS011;58785;55.566;38.058;2023-12-28T14:18:42;6.90;;;1.15;;
71125;SDS011;58785;55.566;38.058;2023-12-28T14:21:08;7.20;;;1.70;;
71125;SDS011;58785;55.566;38.058;2023-12-28T14:23:34;6.37;;;2.00;;
71125;SDS011;58785;55.566;38.058;2023-12-28T14:26:13;6.75;;;1.90;;
71125;SDS011;58785;55.566;38.058;2023-12-28T14:28:41;7.13;;;1.27;;
71125;SDS011;58785;55.566;38.058;2023-12-28T14:31:10;6.70;;;1.30;;
71125;SDS011;58785;55.566;38.058;2023-12-28T14:33:37;8.45;;;1.38;;
71125;SDS011;58785;55.566;38.058;2023-12-28T14:39:04;6.63;;;1.25;;